Latest Weather Observations for Garden Island

IDW60801

Issued at 6:43 am WST Friday 19 August 2022 (issued every 10 minutes, with the page automatically refreshed every 10 minutes)

About weather observations | Map of weather stations | Latest weather observations for WA | Other Formats
Station Details ID: 009256 Name: GARDEN ISLAND HSF Lat: -32.24 Lon: 115.68 Height: 6.0 m
Data from the previous 72 hours. | See also: Recent months at Garden Island
Date/Time
WST
Temp
°C
App
Temp
°C
Dew
Point
°C
Rel
Hum
%
Delta-T
°C
Wind Press
QNH
hPa
Press
MSL
hPa
Rain since
9am
mm
Dir  Spd
km/h
Gust
km/h
Spd
kts
Gust
kts
19/06:30am 15.6 12.7 11.0 74 2.4 WSW 17 20 9 11 1029.0 1029.0 0.0
19/06:00am 15.9 13.5 10.2 69 3.0 WSW 13 20 7 11 1028.9 1028.9 0.0
19/05:30am 15.6 12.6 9.1 65 3.3 SW 15 20 8 11 1028.7 1028.7 0.0
19/05:00am 16.0 11.5 8.7 62 3.7 SW 22 28 12 15 1028.4 1028.4 0.0
19/04:30am 16.0 12.0 9.0 63 3.6 SW 20 28 11 15 1028.3 1028.3 0.0
19/04:00am 15.6 12.2 9.3 66 3.2 W 17 20 9 11 1028.5 1028.5 0.0
19/03:30am 15.7 12.9 8.7 63 3.6 WNW 13 15 7 8 1028.3 1028.3 0.0
19/03:00am 15.8 11.9 8.8 63 3.6 W 19 22 10 12 1028.4 1028.4 0.0
19/02:30am 15.9 11.7 8.2 60 3.9 W 20 28 11 15 1028.4 1028.4 0.0
19/02:00am 15.9 11.9 8.9 63 3.6 WNW 20 26 11 14 1028.4 1028.4 0.0
19/01:30am 15.8 11.8 8.3 61 3.8 WNW 19 24 10 13 1028.5 1028.5 0.0
19/01:00am 15.6 13.5 8.1 61 3.7 W 9 13 5 7 1028.5 1028.5 0.0
19/12:30am 15.5 12.6 8.3 62 3.6 WSW 13 20 7 11 1028.6 1028.6 0.0
19/12:00am 15.7 12.4 8.2 61 3.8 WSW 15 24 8 13 1028.7 1028.7 0.0
 
Date/Time
WST
Temp
°C
App
Temp
°C
Dew
Point
°C
Rel
Hum
%
Delta-T
°C
Wind Press
QNH
hPa
Press
MSL
hPa
Rain since
9am
mm
Dir  Spd
km/h
Gust
km/h
Spd
kts
Gust
kts
18/11:30pm 15.6 12.0 8.4 62 3.6 WSW 17 22 9 12 1028.7 1028.7 0.0
18/11:00pm 16.1 12.2 8.8 62 3.7 SW 19 22 10 12 1028.8 1028.8 0.0
18/10:30pm 16.0 12.7 8.0 59 4.0 SW 15 22 8 12 1029.0 1029.0 0.0
18/10:00pm 16.0 12.8 8.5 61 3.8 SW 15 22 8 12 1029.0 1029.0 0.0
18/09:30pm 16.1 12.2 8.6 61 3.8 SW 19 24 10 13 1028.9 1028.9 0.0
18/09:00pm 16.2 12.2 8.9 62 3.7 SW 20 26 11 14 1028.8 1028.8 0.0
18/08:30pm 16.2 12.7 10.3 68 3.1 SW 19 24 10 13 1028.7 1028.7 0.0
18/08:00pm 16.2 13.3 9.8 66 3.3 SW 15 20 8 11 1028.7 1028.7 0.0
18/07:30pm 15.8 13.2 9.2 65 3.4 WSW 13 19 7 10 1028.5 1028.5 0.0
18/07:00pm 15.6 12.0 8.4 62 3.6 WSW 17 22 9 12 1028.3 1028.3 0.0
18/06:30pm 15.6 12.1 8.8 64 3.5 WSW 17 22 9 12 1028.1 1028.1 0.0
18/06:00pm 15.9 12.9 9.3 65 3.4 SW 15 20 8 11 1027.8 1027.8 0.0
18/05:30pm 15.6 14.5 9.9 69 3.0 N 6 13 3 7 1027.8 1027.8 0.0
18/05:00pm 15.9 13.9 10.0 68 3.1 NNE 11 19 6 10 1027.7 1027.7 0.0
18/04:30pm 15.5 12.9 9.2 66 3.2 N 13 17 7 9 1027.6 1027.6 0.0
18/04:00pm 15.6 12.3 9.5 67 3.1 NNW 17 20 9 11 1027.7 1027.7 0.0
18/03:30pm 15.3 12.0 9.4 68 3.0 NNW 17 24 9 13 1027.7 1027.7 0.0
18/03:00pm 16.3 12.4 9.3 63 3.6 NNW 20 26 11 14 1027.7 1027.7 0.0
18/02:30pm 16.4 12.5 9.6 64 3.5 NNW 20 24 11 13 1027.6 1027.6 0.0
18/02:00pm 16.2 12.4 9.2 63 3.6 NNW 19 24 10 13 1027.5 1027.5 0.0
18/01:30pm 16.2 12.2 9.2 63 3.6 NNW 20 26 11 14 1027.6 1027.6 0.0
18/01:00pm 16.2 12.1 8.7 61 3.8 NNW 20 26 11 14 1027.7 1027.7 0.0
18/12:30pm 16.1 12.1 8.1 59 4.0 NNW 19 24 10 13 1028.1 1028.1 0.0
18/12:00pm 15.9 12.4 8.9 63 3.6 N 17 20 9 11 1028.4 1028.4 0.0
18/11:30am 14.2 10.7 7.3 63 3.4 N 15 20 8 11 1028.5 1028.5 0.0
18/11:00am 14.2 10.3 7.0 62 3.5 N 17 22 9 12 1028.5 1028.5 0.0
18/10:30am 14.3 10.2 8.0 66 3.1 N 19 24 10 13 1028.3 1028.3 0.0
18/10:00am 13.8 10.5 9.5 75 2.2 N 17 22 9 12 1028.2 1028.2 0.0
18/09:30am 12.8 9.5 9.4 80 1.7 N 17 20 9 11 1028.3 1028.3 0.0
18/09:00am 12.3 9.5 9.9 85 1.2 NNE 15 20 8 11 1028.2 1028.2 13.4
18/08:30am 11.7 8.9 10.1 90 0.8 NNE 15 17 8 9 1028.0 1028.0 13.4
18/08:00am 10.6 8.2 10.0 96 0.3 NNE 13 17 7 9 1027.5 1027.5 13.4
18/07:30am 9.6 6.5 9.0 96 0.3 NNE 15 17 8 9 1026.8 1026.8 13.4
18/07:00am 9.4 5.9 8.9 97 0.2 NNE 17 20 9 11 1026.4 1026.4 13.4
18/06:30am 8.7 5.1 8.3 97 0.2 NE 17 20 9 11 1025.9 1025.9 13.4
18/06:00am 8.4 5.5 8.1 98 0.1 NE 13 17 7 9 1025.4 1025.4 13.4
18/05:30am 8.4 5.1 8.1 98 0.1 NE 15 19 8 10 1025.0 1025.0 13.2
18/05:00am 8.1 4.7 7.8 98 0.1 NE 15 19 8 10 1024.9 1024.9 13.2
18/04:30am 7.1 4.2 6.7 97 0.2 ENE 11 13 6 7 1024.8 1024.8 13.2
18/04:00am 7.1 4.2 6.7 97 0.2 ENE 11 11 6 6 1024.5 1024.5 13.2
18/03:30am 7.6 5.2 7.2 97 0.2 NE 9 11 5 6 1024.8 1024.8 13.2
18/03:00am 7.2 4.4 6.8 97 0.2 ENE 11 13 6 7 1024.2 1024.2 13.2
18/02:30am 5.9 3.5 5.2 95 0.3 SE 7 9 4 5 1024.1 1024.1 13.2
18/02:00am 6.5 4.4 5.6 94 0.4 SE 6 7 3 4 1023.6 1023.6 13.2
18/01:30am 7.1 4.9 6.2 94 0.4 SE 7 7 4 4 1023.8 1023.8 13.2
18/01:00am 6.8 4.4 5.4 91 0.6 SE 7 7 4 4 1023.5 1023.5 13.2
18/12:30am 7.2 5.0 5.3 88 0.8 SE 6 7 3 4 1023.1 1023.1 13.2
18/12:00am 9.5 7.1 6.9 84 1.2 SE 9 11 5 6 1022.7 1022.7 13.2
 
Date/Time
WST
Temp
°C
App
Temp
°C
Dew
Point
°C
Rel
Hum
%
Delta-T
°C
Wind Press
QNH
hPa
Press
MSL
hPa
Rain since
9am
mm
Dir  Spd
km/h
Gust
km/h
Spd
kts
Gust
kts
17/11:30pm 10.6 8.1 8.0 84 1.3 SE 11 13 6 7 1022.6 1022.6 13.2
17/11:00pm 10.5 7.6 8.1 85 1.2 SE 13 15 7 8 1022.0 1022.0 13.2
17/10:30pm 10.3 7.5 8.4 88 0.9 SE 13 17 7 9 1021.8 1021.8 13.2
17/10:00pm 10.7 7.9 8.6 87 1.0 SSE 13 15 7 8 1021.4 1021.4 13.2
17/09:30pm 10.9 7.8 9.0 88 0.9 SSE 15 17 8 9 1020.9 1020.9 13.2
17/09:00pm 9.9 6.6 8.2 89 0.8 SE 15 19 8 10 1020.3 1020.3 13.2
17/08:30pm 10.7 7.2 8.6 87 1.0 SE 17 22 9 12 1019.5 1019.5 13.2
17/08:00pm 10.6 9.2 8.9 89 0.8 SSE 6 13 3 7 1018.8 1018.8 13.2
17/07:30pm 10.7 7.5 8.6 87 1.0 SSE 15 22 8 12 1018.0 1018.0 13.2
17/07:00pm 11.0 7.3 9.3 89 0.8 SSE 19 22 10 12 1017.9 1017.9 13.2
17/06:30pm 10.7 7.3 9.3 91 0.7 SSE 17 20 9 11 1017.0 1017.0 12.4
17/06:00pm 10.2 6.4 9.0 92 0.6 SSE 19 20 10 11 1015.9 1015.9 12.2
17/05:30pm 10.5 6.9 9.7 95 0.4 SSE 19 26 10 14 1015.5 1015.5 12.2
17/05:00pm 10.6 6.0 9.7 94 0.5 SE 24 32 13 17 1014.2 1014.2 10.6
17/04:30pm 10.8 7.1 9.6 92 0.6 ESE 19 22 10 12 1013.1 1013.1 10.6
17/04:00pm 11.3 8.0 9.6 89 0.9 ESE 17 24 9 13 1012.5 1012.5 9.8
17/03:30pm 11.4 10.5 9.1 86 1.1 S 4 7 2 4 1012.2 1012.2 9.8
17/03:00pm 11.0 6.6 8.9 87 1.0 SW 22 41 12 22 1012.0 1012.0 9.6
17/02:50pm 11.5 6.6 8.5 82 1.5 WSW 24 33 13 18 1012.4 1012.4 8.6
17/02:30pm 11.9 10.0 8.9 82 1.5 W 9 13 5 7 1011.5 1011.5 7.6
17/02:00pm 11.1 5.9 8.8 86 1.1 NW 26 46 14 25 1011.1 1011.1 7.4
17/01:35pm 11.8 7.3 8.5 80 1.6 WNW 22 63 12 34 1012.0 1012.0 3.8
17/01:30pm 12.9 9.3 6.9 67 2.9 SSW 15 33 8 18 1011.2 1011.2 2.6
17/01:00pm 13.9 10.4 8.9 72 2.5 S 17 20 9 11 1011.2 1011.2 2.2
17/12:30pm 14.5 10.6 9.3 71 2.7 SSW 20 26 11 14 1011.8 1011.8 2.0
17/12:00pm 14.8 11.9 8.3 65 3.3 SW 13 19 7 10 1012.0 1012.0 2.0
17/11:30am 14.3 9.3 8.0 66 3.1 WSW 24 32 13 17 1012.2 1012.2 2.0
17/11:02am 13.0 6.0 8.5 74 2.2 WSW 35 54 19 29 1012.3 1012.3 2.0
17/11:00am 13.0 5.2 8.3 73 2.3 WSW 39 54 21 29 1012.4 1012.4 2.0
17/10:35am 13.4 4.5 9.3 76 2.1 SW 46 65 25 35 1012.5 1012.5 2.0
17/10:30am 13.4 4.4 8.7 73 2.4 WSW 46 65 25 35 1012.5 1012.5 2.0
17/10:27am 14.6 6.2 9.0 69 2.9 W 43 65 23 35 1012.4 1012.4 2.0
17/10:00am 15.0 7.0 7.3 60 3.8 W 39 56 21 30 1011.8 1011.8 2.0
17/09:58am 14.8 8.0 7.8 63 3.5 W 33 52 18 28 1011.7 1011.7 2.0
17/09:30am 13.6 7.6 10.0 79 1.9 WNW 32 41 17 22 1011.5 1011.5 2.0
17/09:00am 13.6 7.1 8.0 69 2.8 W 32 46 17 25 1011.3 1011.3 14.8
17/08:52am 13.7 8.4 9.7 77 2.1 W 28 46 15 25 1011.4 1011.4 14.8
17/08:30am 12.8 6.4 8.5 75 2.1 NW 32 43 17 23 1011.0 1011.0 14.8
17/08:17am 12.4 2.4 7.7 73 2.3 NW 50 69 27 37 1011.0 1011.0 14.8
17/08:08am 13.0 3.4 7.9 71 2.5 W 48 69 26 37 1011.1 1011.1 14.8
17/08:00am 14.5 5.4 6.8 60 3.7 W 44 65 24 35 1010.7 1010.7 14.8
17/07:56am 14.5 5.8 7.5 63 3.5 W 43 65 23 35 1010.5 1010.5 14.8
17/07:30am 14.1 5.6 8.5 69 2.8 W 43 56 23 30 1009.9 1009.9 14.8
17/07:00am 12.8 4.1 7.9 72 2.4 WNW 43 59 23 32 1009.5 1009.5 14.8
17/06:50am 12.0 0.7 7.9 76 2.0 NW 57 76 31 41 1009.4 1009.4 14.8
17/06:37am 12.1 1.0 8.6 79 1.7 WNW 57 91 31 49 1009.7 1009.7 14.2
17/06:35am 12.1 1.7 7.8 75 2.1 WNW 52 89 28 48 1009.5 1009.5 14.2
17/06:33am 12.4 3.2 8.1 75 2.1 W 46 82 25 44 1009.6 1009.6 14.2
17/06:31am 13.3 4.9 8.8 74 2.3 W 43 63 23 34 1009.5 1009.5 14.2
17/06:30am 13.3 5.0 9.2 76 2.1 W 43 56 23 30 1009.2 1009.2 14.2
17/06:18am 13.1 5.2 8.0 71 2.5 WSW 39 56 21 30 1008.9 1008.9 14.2
17/06:00am 13.0 2.4 8.3 73 2.3 WSW 54 69 29 37 1008.8 1008.8 14.2
17/05:52am 14.0 3.1 8.8 71 2.6 W 56 76 30 41 1008.6 1008.6 14.2
17/05:46am 13.4 4.2 8.0 70 2.7 W 46 76 25 41 1008.3 1008.3 14.2
17/05:39am 11.7 0.1 8.2 79 1.7 W 59 98 32 53 1008.4 1008.4 14.2
17/05:38am 11.4 -0.7 7.9 79 1.7 W 61 98 33 53 1008.4 1008.4 14.2
17/05:33am 13.2 2.6 8.5 73 2.3 W 54 91 29 49 1008.1 1008.1 13.8
17/05:32am 13.9 4.0 8.1 68 2.9 W 50 87 27 47 1008.1 1008.1 13.8
17/05:30am 14.6 5.0 8.1 65 3.2 W 48 65 26 35 1007.9 1007.9 13.8
17/05:13am 14.3 5.7 8.3 67 3.0 W 43 61 23 33 1007.6 1007.6 13.8
17/05:00am 14.4 5.8 10.2 76 2.2 W 46 59 25 32 1007.5 1007.5 13.8
17/04:51am 15.0 6.4 10.2 73 2.5 W 46 65 25 35 1007.4 1007.4 13.8
17/04:30am 14.8 4.3 8.7 67 3.1 W 54 70 29 38 1007.2 1007.2 13.8
17/04:06am 14.4 5.5 9.2 71 2.7 W 46 65 25 35 1006.8 1006.8 13.8
17/04:00am 14.1 5.4 9.9 76 2.2 W 46 61 25 33 1006.8 1006.8 13.8
17/03:30am 13.0 2.0 10.5 85 1.3 W 59 82 32 44 1006.8 1006.8 13.8
17/03:22am 14.7 5.2 9.9 73 2.5 W 50 82 27 44 1006.6 1006.6 13.6
17/03:18am 14.7 6.3 9.7 72 2.6 W 44 63 24 34 1006.5 1006.5 13.6
17/03:00am 14.3 5.6 10.1 76 2.2 W 46 57 25 31 1006.5 1006.5 13.6
17/02:40am 12.1 2.7 10.2 88 1.0 W 50 76 27 41 1006.7 1006.7 13.6
17/02:33am 12.5 5.1 10.0 85 1.3 W 39 76 21 41 1007.0 1007.0 12.8
17/02:31am 13.9 7.6 10.9 82 1.6 W 35 63 19 34 1006.8 1006.8 12.2
17/02:30am 14.0 8.1 11.3 84 1.4 WNW 33 44 18 24 1006.5 1006.5 12.2
17/02:03am 13.1 3.8 11.7 91 0.7 W 52 70 28 38 1006.7 1006.7 11.8
17/02:00am 13.0 2.8 11.4 90 0.8 W 56 72 30 39 1007.0 1007.0 11.8
17/01:49am 13.2 2.5 10.2 82 1.6 W 57 82 31 44 1007.1 1007.1 11.4
17/01:45am 14.2 4.5 10.4 78 2.0 WNW 52 72 28 39 1006.9 1006.9 11.0
17/01:30am 15.0 6.2 9.6 70 2.8 WNW 46 69 25 37 1006.4 1006.4 11.0
17/01:00am 13.6 5.9 10.2 80 1.8 WNW 41 65 22 35 1006.9 1006.9 10.8
17/12:51am 13.5 3.9 10.7 83 1.5 WNW 52 70 28 38 1007.2 1007.2 10.2
17/12:30am 14.1 4.4 10.3 78 2.0 W 52 69 28 37 1006.8 1006.8 10.0
17/12:26am 14.7 5.4 10.7 77 2.1 W 50 69 27 37 1006.9 1006.9 10.0
17/12:25am 14.7 5.4 10.5 76 2.2 W 50 67 27 36 1006.9 1006.9 10.0
17/12:00am 13.5 6.8 12.2 92 0.7 NW 39 59 21 32 1007.2 1007.2 10.0
 
Date/Time
WST
Temp
°C
App
Temp
°C
Dew
Point
°C
Rel
Hum
%
Delta-T
°C
Wind Press
QNH
hPa
Press
MSL
hPa
Rain since
9am
mm
Dir  Spd
km/h
Gust
km/h
Spd
kts
Gust
kts
16/11:59pm 13.5 6.4 12.2 92 0.7 NW 41 59 22 32 1007.2 1007.2 10.0
16/11:52pm 13.5 5.8 11.4 87 1.1 NW 43 59 23 32 1007.3 1007.3 8.0
16/11:47pm 14.3 7.7 11.5 83 1.5 NNW 37 57 20 31 1007.4 1007.4 6.2
16/11:30pm 13.9 6.7 10.5 80 1.8 NNW 39 50 21 27 1007.1 1007.1 6.0
16/11:22pm 14.0 6.2 11.2 83 1.5 NW 43 61 23 33 1007.4 1007.4 6.0
16/11:07pm 13.4 6.6 10.6 83 1.5 WNW 37 54 20 29 1007.7 1007.7 5.8
16/11:00pm 12.9 3.5 10.3 84 1.3 NW 50 80 27 43 1008.1 1008.1 5.6
16/10:58pm 12.9 3.3 9.5 80 1.7 NW 50 80 27 43 1008.3 1008.3 5.6
16/10:56pm 13.1 3.6 8.4 73 2.3 NW 48 80 26 43 1008.1 1008.1 4.6
16/10:55pm 14.1 5.6 9.1 72 2.5 NW 44 80 24 43 1007.9 1007.9 4.4
16/10:30pm 16.2 8.3 10.9 71 2.8 NW 43 61 23 33 1007.0 1007.0 4.0
16/10:00pm 16.0 10.0 10.7 71 2.8 NW 33 43 18 23 1007.2 1007.2 4.0
16/09:30pm 15.8 9.0 10.6 71 2.8 W 37 52 20 28 1007.6 1007.6 4.0
16/09:20pm 14.0 3.4 8.4 69 2.8 W 54 83 29 45 1007.8 1007.8 4.0
16/09:14pm 14.3 4.8 8.3 67 3.0 WNW 48 83 26 45 1008.1 1008.1 4.0
16/09:13pm 15.4 7.3 10.6 73 2.5 WNW 44 74 24 40 1007.9 1007.9 4.0
16/09:10pm 15.9 9.2 11.1 73 2.6 WNW 37 63 20 34 1007.6 1007.6 4.0
16/09:00pm 16.1 9.8 11.1 72 2.7 NW 35 48 19 26 1007.4 1007.4 4.0
16/08:56pm 15.8 9.0 10.8 72 2.7 NW 37 48 20 26 1007.5 1007.5 4.0
16/08:30pm 15.4 7.6 9.7 69 3.0 WNW 41 63 22 34 1007.6 1007.6 4.0
16/08:21pm 15.4 8.2 10.6 73 2.5 WNW 39 57 21 31 1007.7 1007.7 4.0
16/08:00pm 16.2 7.8 8.9 62 3.8 WNW 43 57 23 31 1007.6 1007.6 3.8
16/07:49pm 16.2 9.4 10.7 70 2.9 WNW 37 56 20 30 1007.6 1007.6 3.8
16/07:30pm 15.0 8.6 10.8 76 2.2 NW 35 46 19 25 1007.7 1007.7 3.8
16/07:13pm 14.8 9.5 11.4 80 1.8 WNW 30 57 16 31 1007.9 1007.9 3.8
16/07:00pm 14.2 8.2 12.2 88 1.1 W 35 57 19 31 1007.7 1007.7 3.8
16/06:54pm 13.9 6.0 11.4 85 1.3 W 44 76 24 41 1007.7 1007.7 3.6
16/06:51pm 13.9 5.4 10.5 80 1.8 W 46 76 25 41 1007.9 1007.9 2.6
16/06:50pm 14.3 6.1 10.5 78 2.0 W 44 76 24 41 1007.9 1007.9 2.2
16/06:49pm 15.1 7.4 10.3 73 2.5 W 41 74 22 40 1007.7 1007.7 1.4
16/06:30pm 15.8 9.9 11.2 74 2.5 W 33 50 18 27 1007.3 1007.3 1.0
16/06:06pm 16.4 9.4 11.1 71 2.8 WNW 39 57 21 31 1007.3 1007.3 1.0
16/06:00pm 16.7 8.7 9.1 61 3.9 WNW 41 57 22 31 1007.1 1007.1 1.0
16/05:30pm 15.8 8.7 10.8 72 2.7 W 39 48 21 26 1007.4 1007.4 1.0
16/05:00pm 15.1 6.6 10.7 75 2.3 W 46 76 25 41 1007.0 1007.0 1.0
16/04:51pm 16.5 8.6 9.2 62 3.8 W 41 59 22 32 1006.7 1006.7 1.0
16/04:30pm 17.2 9.9 10.3 64 3.7 W 39 50 21 27 1006.7 1006.7 1.0
16/04:00pm 17.4 9.3 10.1 62 3.9 WNW 43 56 23 30 1006.5 1006.5 1.0
16/03:40pm 17.5 10.1 11.1 66 3.5 WNW 41 63 22 34 1006.4 1006.4 1.0
16/03:30pm 18.0 10.6 9.9 59 4.3 WNW 39 46 21 25 1006.3 1006.3 1.0
16/03:00pm 18.0 11.2 10.6 62 4.0 WNW 37 50 20 27 1006.1 1006.1 1.0
16/02:30pm 17.9 10.5 10.0 60 4.2 WNW 39 52 21 28 1006.0 1006.0 1.0
16/02:00pm 17.3 10.1 11.8 70 3.0 W 41 54 22 29 1005.9 1005.9 1.0
16/01:46pm 17.6 10.3 10.2 62 3.9 WNW 39 57 21 31 1005.8 1005.8 1.0
16/01:30pm 17.6 10.3 11.4 67 3.4 W 41 54 22 29 1005.7 1005.7 0.8
16/01:00pm 17.6 10.1 10.9 65 3.6 WNW 41 56 22 30 1005.8 1005.8 0.8
16/12:30pm 17.4 10.3 12.3 72 2.8 W 41 50 22 27 1005.8 1005.8 0.8
16/12:00pm 17.2 12.0 13.3 78 2.2 WNW 33 46 18 25 1005.5 1005.5 0.8
16/11:30am 16.9 11.2 13.0 78 2.2 W 35 46 19 25 1005.7 1005.7 0.8
16/11:00am 15.4 8.8 12.7 84 1.5 WNW 39 52 21 28 1006.3 1006.3 0.8
16/10:55am 15.4 7.7 13.4 88 1.1 WNW 46 74 25 40 1006.5 1006.5 0.8
16/10:43am 15.2 6.9 12.5 84 1.5 W 48 78 26 42 1006.6 1006.6 0.6
16/10:42am 15.5 7.7 13.0 85 1.4 W 46 69 25 37 1006.5 1006.5 0.6
16/10:37am 16.3 10.8 13.6 84 1.5 W 35 57 19 31 1006.1 1006.1 0.6
16/10:30am 16.4 11.7 13.3 82 1.7 W 30 41 16 22 1005.8 1005.8 0.6
16/10:04am 15.9 11.5 13.0 83 1.6 W 28 46 15 25 1006.0 1006.0 0.4
16/10:00am 16.5 12.8 14.0 85 1.4 W 26 35 14 19 1005.8 1005.8 0.4
16/09:30am 15.7 11.6 13.9 89 1.0 WNW 28 39 15 21 1005.7 1005.7 0.4
16/09:01am 15.6 9.8 13.8 89 1.0 W 37 59 20 32 1005.8 1005.8 0.2
16/09:00am 15.9 10.3 14.4 91 0.9 W 37 50 20 27 1005.8 1005.8 13.2
16/08:44am 16.1 10.2 14.6 91 0.9 W 39 59 21 32 1005.5 1005.5 12.6
16/08:30am 16.3 10.3 14.3 88 1.1 W 39 52 21 28 1005.0 1005.0 12.2
16/08:00am 16.2 11.0 14.4 89 1.0 W 35 44 19 24 1004.5 1004.5 12.0
16/07:38am 16.6 10.6 14.4 87 1.3 W 39 57 21 31 1004.0 1004.0 11.2
16/07:30am 18.1 12.8 14.2 78 2.2 WNW 35 44 19 24 1003.9 1003.9 10.8
16/07:00am 18.2 13.4 14.1 77 2.4 WNW 32 41 17 22 1003.6 1003.6 10.8

Other formats

Comma delimited format used in spreadsheet applications
http://www.bom.gov.au/fwo/IDW60801/IDW60801.95607.axf

JavaScript Object Notation format (JSON) in row-major order
http://www.bom.gov.au/fwo/IDW60801/IDW60801.95607.json

Data quality

Most of these data are generated automatically and are frequently updated. Quality checks on data are not normally performed. It is possible for incorrect values to appear. Refer to information at About Latest Weather Observations and please check the disclaimer before using these data.